マイアミ の空港の天気 - METARとTAF

マイアミ国際空港 ( KMIA / MIA ) - アメリカ フロリダ州マイアミ
飛行場実況気象(Metar)
観測時間01/18 15:53 EST (01/18 20:53 UTC)
風向・風速北 4m/s
視程10km以上
天気現象
少しの雲 雲底高度 1070m
全天の8割程度の雲 雲底高度 7620m
気温17.2℃
湿度52%
気圧1023.6hPa
METARKMIA 182053Z 36008KT 10SM FEW035 BKN250 17/07 A3023 RMK AO2 SLP236 T01720072 56016
過去の天気等 Google飛行場航空写真 Wunderground天気予報

過去48時間のMETAR

飛行場予報(TAF)
発表時間: 1/18 16:04 EST (1/18 21:04 UTC)
予報対象時間: 18日16時 EST ~ 19日19時 EST
風向・風速北 5m/s
視程10km以上
少しの雲 雲底高度 1,070m
全天の4割程度の雲 雲底高度 7,620m
18日21時 EST から
風向・風速北北西 3m/s
視程10km以上
少しの雲 雲底高度 910m
全天の4割程度の雲 雲底高度 7,620m
19日10時 EST から
風向・風速北北東 5m/s
視程10km以上
全天の4割程度の雲 雲底高度 7,620m
KMIA 182104Z 1821/1924 36009KT P6SM FEW035 SCT250
FM190200 34005KT P6SM FEW030 SCT250
FM191500 03009KT P6SM SCT250